createdAt,value
2017-11-07T00:01:05.501Z,147.20
2017-11-07T00:03:33.112Z,222.50
2017-11-07T00:06:00.706Z,126.53
2017-11-07T00:08:28.267Z,168.40
2017-11-07T00:10:55.684Z,165.90
2017-11-07T00:13:23.074Z,94.23
2017-11-07T00:15:50.637Z,103.67
2017-11-07T00:18:18.118Z,104.33
2017-11-07T00:20:44.830Z,108.67
2017-11-07T00:23:12.456Z,137.37
2017-11-07T00:25:40.077Z,129.13
2017-11-07T00:28:07.575Z,149.30
2017-11-07T00:30:35.003Z,227.43
2017-11-07T00:33:02.513Z,144.67
2017-11-07T00:35:30.039Z,197.63
2017-11-07T00:37:57.625Z,100.17
2017-11-07T00:40:25.254Z,116.33
2017-11-07T00:42:52.848Z,287.37
2017-11-07T00:45:20.267Z,263.43
2017-11-07T00:47:47.694Z,136.33
2017-11-07T00:50:15.090Z,286.53
2017-11-07T00:52:42.542Z,100.23
2017-11-07T00:55:09.990Z,246.80
2017-11-07T00:57:37.393Z,366.97
2017-11-07T01:00:04.811Z,420.10
2017-11-07T01:02:32.208Z,279.30
2017-11-07T01:04:59.632Z,76.23
2017-11-07T01:07:27.033Z,78.80
2017-11-07T01:09:54.426Z,203.53
2017-11-07T01:12:21.832Z,91.30
2017-11-07T01:14:49.243Z,156.07
2017-11-07T01:17:16.807Z,224.03
2017-11-07T01:19:44.252Z,119.37
2017-11-07T01:22:11.654Z,239.97
2017-11-07T01:24:39.058Z,246.83
2017-11-07T01:27:06.522Z,138.23
2017-11-07T01:29:33.913Z,95.47
2017-11-07T01:32:01.318Z,229.73
2017-11-07T01:34:28.722Z,232.87
2017-11-07T01:36:56.124Z,98.73
2017-11-07T01:39:23.514Z,79.13
2017-11-07T01:41:50.927Z,163.83
2017-11-07T01:44:18.327Z,343.93
2017-11-07T01:46:45.754Z,185.10
2017-11-07T01:49:13.220Z,153.20
2017-11-07T01:51:40.632Z,194.80
2017-11-07T01:54:08.128Z,134.03
2017-11-07T01:56:35.582Z,173.77
2017-11-07T01:59:02.985Z,151.87
2017-11-07T02:01:30.381Z,176.80
2017-11-07T02:03:57.815Z,185.57
2017-11-07T02:06:25.194Z,123.73
2017-11-07T02:08:52.613Z,100.83
2017-11-07T02:11:20.015Z,210.63
2017-11-07T02:13:47.471Z,325.60
2017-11-07T02:16:14.871Z,147.57
2017-11-07T02:18:42.273Z,114.23
2017-11-07T02:21:09.659Z,155.17
2017-11-07T02:23:37.092Z,91.73
2017-11-07T02:26:04.486Z,97.50
2017-11-07T02:28:31.893Z,140.57
2017-11-07T02:30:59.367Z,272.57
2017-11-07T02:33:26.766Z,240.80
2017-11-07T02:35:54.154Z,215.73
2017-11-07T02:38:21.559Z,384.43
2017-11-07T02:40:48.962Z,222.40
2017-11-07T02:43:16.355Z,168.83
2017-11-07T02:45:43.758Z,336.03
2017-11-07T02:48:11.248Z,126.97
2017-11-07T02:50:38.707Z,431.80
2017-11-07T02:53:06.103Z,197.27
2017-11-07T02:55:33.528Z,126.23
2017-11-07T02:58:00.904Z,198.00
2017-11-07T03:00:28.308Z,351.10
2017-11-07T03:02:55.711Z,266.17
2017-11-07T03:05:23.139Z,178.63
2017-11-07T03:07:50.604Z,323.23
2017-11-07T03:10:18.000Z,409.90
2017-11-07T03:12:45.498Z,305.70
2017-11-07T03:15:12.902Z,418.50
2017-11-07T03:17:40.291Z,370.07
2017-11-07T03:20:07.698Z,377.10
2017-11-07T03:22:35.122Z,409.17
2017-11-07T03:25:02.582Z,394.97
2017-11-07T03:27:29.980Z,276.97
2017-11-07T03:29:57.405Z,375.43
2017-11-07T03:32:24.862Z,296.93
2017-11-07T03:34:52.303Z,457.87
2017-11-07T03:37:19.698Z,179.53
2017-11-07T03:39:47.102Z,286.43
2017-11-07T03:42:14.497Z,379.47
2017-11-07T03:44:41.902Z,252.50
2017-11-07T03:47:09.295Z,404.87
2017-11-07T03:49:36.702Z,248.70
2017-11-07T03:52:04.090Z,348.17
2017-11-07T03:54:31.539Z,249.03
2017-11-07T03:56:58.944Z,367.27
2017-11-07T03:59:26.347Z,402.33
2017-11-07T04:01:53.753Z,186.17
2017-11-07T04:04:21.151Z,283.40
2017-11-07T04:06:48.547Z,214.10
2017-11-07T04:09:15.971Z,174.57
2017-11-07T04:11:43.426Z,406.13
2017-11-07T04:14:10.909Z,324.83
2017-11-07T04:16:38.312Z,209.77
2017-11-07T04:19:05.763Z,326.67
2017-11-07T04:21:33.164Z,350.90
2017-11-07T04:24:00.559Z,155.37
2017-11-07T04:26:27.955Z,296.80
2017-11-07T04:28:55.343Z,144.53
2017-11-07T04:31:22.767Z,233.55
2017-11-07T04:33:50.158Z,135.97
2017-11-07T04:36:17.558Z,202.37
2017-11-07T04:38:45.041Z,87.63
2017-11-07T04:41:12.443Z,278.77
2017-11-07T04:43:39.830Z,163.40
2017-11-07T04:46:07.268Z,166.93
2017-11-07T04:48:34.658Z,212.60
2017-11-07T04:51:02.065Z,142.10
2017-11-07T04:53:29.455Z,158.57
2017-11-07T04:55:56.857Z,238.53
2017-11-07T04:58:24.246Z,189.03
2017-11-07T05:00:51.654Z,173.50
2017-11-07T05:03:19.090Z,126.90
2017-11-07T05:05:46.492Z,108.87
2017-11-07T05:08:13.891Z,256.87
2017-11-07T05:10:41.344Z,93.47
2017-11-07T05:13:08.738Z,136.77
2017-11-07T05:15:36.177Z,241.10
2017-11-07T05:18:03.566Z,247.10
2017-11-07T05:20:30.967Z,223.60
2017-11-07T05:22:58.374Z,131.23
2017-11-07T05:25:25.754Z,267.43
2017-11-07T05:27:53.234Z,308.97
2017-11-07T05:30:20.683Z,305.37
2017-11-07T05:32:48.090Z,242.60
2017-11-07T05:35:15.499Z,240.53
2017-11-07T05:37:42.902Z,189.80
2017-11-07T05:40:10.319Z,154.70
2017-11-07T05:42:37.771Z,178.17
2017-11-07T05:45:05.166Z,162.40
2017-11-07T05:47:32.594Z,155.77
2017-11-07T05:50:00.048Z,140.80
2017-11-07T05:52:27.497Z,97.53
2017-11-07T05:54:54.894Z,83.33
2017-11-07T05:57:23.107Z,157.20
2017-11-07T05:59:50.491Z,115.23
2017-11-07T06:02:17.890Z,187.00
2017-11-07T06:04:45.278Z,130.20
2017-11-07T06:07:12.675Z,274.47
2017-11-07T06:09:40.076Z,261.50
2017-11-07T06:12:07.474Z,98.43
2017-11-07T06:14:34.867Z,108.67
2017-11-07T06:17:02.271Z,182.03
2017-11-07T06:19:29.730Z,113.63
2017-11-07T06:21:57.174Z,215.97
2017-11-07T06:24:24.575Z,173.20
2017-11-07T06:26:51.979Z,249.33
2017-11-07T06:29:19.373Z,436.07
2017-11-07T06:31:46.771Z,200.73
2017-11-07T06:34:14.169Z,121.87
2017-11-07T06:36:41.614Z,338.27
2017-11-07T06:39:09.007Z,233.03
2017-11-07T06:41:36.402Z,152.07
2017-11-07T06:44:03.799Z,259.83
2017-11-07T06:46:31.190Z,175.60
2017-11-07T06:48:58.590Z,290.07
2017-11-07T06:51:25.982Z,205.70
2017-11-07T06:53:53.399Z,168.93
2017-11-07T06:56:20.791Z,243.93
2017-11-07T06:58:48.194Z,155.30
2017-11-07T07:01:15.646Z,143.00
2017-11-07T07:03:43.051Z,151.40
2017-11-07T07:06:10.486Z,108.63
2017-11-07T07:08:37.859Z,141.60
2017-11-07T07:11:05.292Z,160.93
2017-11-07T07:13:32.680Z,78.13
2017-11-07T07:16:00.074Z,114.97
2017-11-07T07:18:27.463Z,81.20
2017-11-07T07:20:54.868Z,133.17
2017-11-07T07:23:22.358Z,99.50
2017-11-07T07:25:49.750Z,65.43
2017-11-07T07:28:17.167Z,127.63
2017-11-07T07:30:44.625Z,163.00
2017-11-07T07:33:12.090Z,162.10
2017-11-07T07:35:39.487Z,226.40
2017-11-07T07:38:06.888Z,112.30
2017-11-07T07:40:34.396Z,125.13
2017-11-07T07:43:01.854Z,125.87
2017-11-07T07:45:29.307Z,159.13
2017-11-07T07:47:56.701Z,81.10
2017-11-07T07:50:24.098Z,209.40
2017-11-07T07:52:51.492Z,169.97
2017-11-07T07:55:18.886Z,181.57
2017-11-07T07:57:46.288Z,150.10
2017-11-07T08:00:13.682Z,143.63
2017-11-07T08:02:41.084Z,204.10
2017-11-07T08:05:08.483Z,188.77
2017-11-07T08:07:35.870Z,299.27
2017-11-07T08:10:03.277Z,200.43
2017-11-07T08:12:30.671Z,166.40
2017-11-07T08:14:58.067Z,187.13
2017-11-07T08:17:25.454Z,143.20
2017-11-07T08:19:52.862Z,139.77
2017-11-07T08:22:20.339Z,135.77
2017-11-07T08:24:47.803Z,209.17
2017-11-07T08:27:15.191Z,82.07
2017-11-07T08:29:42.615Z,158.90
2017-11-07T08:32:10.058Z,64.20
2017-11-07T08:34:37.460Z,153.33
2017-11-07T08:37:04.850Z,101.77
2017-11-07T08:39:32.269Z,169.67
2017-11-07T08:41:59.662Z,121.47
2017-11-07T08:44:27.137Z,87.33
2017-11-07T08:46:54.594Z,87.17
2017-11-07T08:49:21.982Z,48.87
2017-11-07T08:51:49.373Z,88.80
2017-11-07T08:54:16.759Z,62.27
2017-11-07T08:56:44.147Z,86.20
2017-11-07T08:59:11.548Z,83.80
2017-11-07T09:01:38.927Z,48.23
2017-11-07T09:04:06.374Z,50.10
2017-11-07T09:06:33.841Z,38.40
2017-11-07T09:09:01.218Z,67.83
2017-11-07T09:11:28.646Z,52.57
2017-11-07T09:13:56.105Z,43.03
2017-11-07T09:16:23.495Z,76.97
2017-11-07T09:18:50.877Z,46.97
2017-11-07T09:21:18.271Z,22.00
2017-11-07T09:23:45.726Z,53.03
2017-11-07T09:26:13.134Z,70.47
2017-11-07T09:28:40.523Z,58.70
2017-11-07T09:31:07.907Z,85.97
2017-11-07T09:33:35.354Z,32.30
2017-11-07T09:36:02.743Z,47.53
2017-11-07T09:38:30.134Z,43.10
2017-11-07T09:40:57.515Z,53.80
2017-11-07T09:43:24.978Z,36.83
2017-11-07T09:45:52.366Z,47.03
2017-11-07T09:48:19.793Z,33.67
2017-11-07T09:50:47.176Z,30.07
2017-11-07T09:53:14.570Z,18.77
2017-11-07T09:55:42.051Z,45.43
2017-11-07T09:58:09.446Z,25.20
2017-11-07T10:00:36.889Z,16.30
2017-11-07T10:03:04.278Z,18.00
2017-11-07T10:05:31.679Z,77.10
2017-11-07T10:07:59.067Z,43.57
2017-11-07T10:10:26.487Z,40.07
2017-11-07T10:12:53.879Z,40.03
2017-11-07T10:15:21.257Z,41.83
2017-11-07T10:17:48.650Z,27.73
2017-11-07T10:20:16.035Z,80.87
2017-11-07T10:22:43.428Z,52.47
2017-11-07T10:25:10.810Z,24.73
2017-11-07T10:27:38.213Z,63.10
2017-11-07T10:30:05.598Z,44.30
2017-11-07T10:32:33.002Z,20.83
2017-11-07T10:35:00.432Z,33.90
2017-11-07T10:37:27.886Z,71.33
2017-11-07T10:39:55.287Z,42.47
2017-11-07T10:42:22.707Z,22.17
2017-11-07T10:44:50.102Z,38.13
2017-11-07T10:47:17.582Z,35.17
2017-11-07T10:49:44.971Z,20.30
2017-11-07T10:52:12.359Z,51.63
2017-11-07T10:54:39.756Z,26.73
2017-11-07T10:57:07.140Z,7.93
2017-11-07T10:59:34.524Z,16.93
2017-11-07T11:02:01.913Z,10.10
2017-11-07T11:04:29.312Z,12.60
2017-11-07T11:06:56.724Z,35.43
2017-11-07T11:09:24.099Z,18.43
2017-11-07T11:11:51.482Z,12.83
2017-11-07T11:14:18.978Z,8.37
2017-11-07T11:16:46.374Z,17.33
2017-11-07T11:19:13.794Z,13.77
2017-11-07T11:21:41.176Z,8.33
2017-11-07T11:24:08.568Z,23.63
2017-11-07T11:26:36.059Z,14.93
2017-11-07T11:29:03.457Z,21.63
2017-11-07T11:31:30.842Z,23.53
2017-11-07T11:33:58.226Z,21.73
2017-11-07T11:36:25.619Z,15.60
2017-11-07T11:38:53.019Z,9.70
2017-11-07T11:41:20.471Z,20.43
2017-11-07T11:43:47.954Z,23.83
2017-11-07T11:46:15.402Z,19.50
2017-11-07T11:48:42.799Z,17.03
2017-11-07T11:51:10.210Z,19.60
2017-11-07T11:53:37.675Z,20.40
2017-11-07T11:56:05.072Z,15.03
2017-11-07T11:58:32.454Z,16.03
2017-11-07T12:00:59.947Z,25.27
2017-11-07T12:03:27.344Z,20.00
2017-11-07T12:05:54.751Z,29.70
2017-11-07T12:08:22.135Z,15.00
2017-11-07T12:10:49.532Z,18.47
2017-11-07T12:13:16.915Z,23.83
2017-11-07T12:15:44.315Z,21.10
2017-11-07T12:18:11.699Z,18.53
2017-11-07T12:20:39.095Z,21.70
2017-11-07T12:23:06.487Z,28.73
2017-11-07T12:25:33.877Z,29.40
2017-11-07T12:28:01.270Z,25.10
2017-11-07T12:30:28.666Z,17.80
2017-11-07T12:32:56.130Z,23.97
2017-11-07T12:35:23.524Z,19.03
2017-11-07T12:37:50.911Z,26.10
2017-11-07T12:40:18.328Z,17.20
2017-11-07T12:42:45.728Z,23.73
2017-11-07T12:45:13.115Z,19.53
2017-11-07T12:47:40.511Z,25.50
2017-11-07T12:50:19.923Z,20.63
2017-11-07T12:52:47.379Z,18.53
2017-11-07T12:55:14.766Z,15.67
2017-11-07T12:57:42.155Z,19.77
2017-11-07T13:00:09.555Z,17.13
2017-11-07T13:02:36.949Z,20.13
2017-11-07T13:05:04.350Z,18.07
2017-11-07T13:07:31.821Z,30.43
2017-11-07T13:09:59.211Z,17.30
2017-11-07T13:12:26.652Z,19.57
2017-11-07T13:14:54.025Z,18.60
2017-11-07T13:17:21.422Z,15.17
2017-11-07T13:19:48.812Z,18.20
2017-11-07T13:22:16.291Z,14.67
2017-11-07T13:24:43.679Z,16.60
2017-11-07T13:27:11.072Z,19.97
2017-11-07T13:29:38.464Z,19.30
2017-11-07T13:32:05.873Z,17.07
2017-11-07T13:34:33.262Z,20.83
2017-11-07T13:37:00.660Z,19.50
2017-11-07T13:39:28.099Z,22.27
2017-11-07T13:41:55.498Z,16.90
2017-11-07T13:44:22.911Z,17.90
2017-11-07T13:46:50.311Z,22.73
2017-11-07T13:49:17.718Z,15.20
2017-11-07T13:51:45.116Z,16.27
2017-11-07T13:54:12.502Z,14.90
2017-11-07T13:56:39.892Z,15.37
2017-11-07T13:59:07.283Z,18.93
2017-11-07T14:01:34.676Z,15.03
2017-11-07T14:04:02.064Z,19.87
2017-11-07T14:06:29.446Z,16.70
2017-11-07T14:08:56.838Z,22.47
2017-11-07T14:11:24.306Z,27.80
2017-11-07T14:13:51.703Z,20.00
2017-11-07T14:16:19.118Z,30.87
2017-11-07T14:18:46.524Z,19.40
2017-11-07T14:21:13.910Z,21.37
2017-11-07T14:23:41.308Z,26.20
2017-11-07T14:26:08.695Z,21.93
2017-11-07T14:28:36.194Z,17.70
2017-11-07T14:31:03.597Z,26.70
2017-11-07T14:33:30.990Z,20.70
2017-11-07T14:35:58.484Z,24.47
2017-11-07T14:38:25.966Z,19.50
2017-11-07T14:40:53.406Z,19.37
2017-11-07T14:43:20.810Z,24.57
2017-11-07T14:45:48.221Z,22.40
2017-11-07T14:48:15.594Z,18.23
2017-11-07T14:50:43.063Z,18.43
2017-11-07T14:53:10.455Z,16.87
2017-11-07T14:55:37.855Z,18.67
2017-11-07T14:58:05.255Z,16.60
2017-11-07T15:00:32.650Z,16.10
2017-11-07T15:03:00.047Z,19.17
2017-11-07T15:05:27.455Z,21.03
2017-11-07T15:07:55.077Z,15.40
2017-11-07T15:10:22.554Z,20.17
2017-11-07T15:12:49.935Z,16.70
2017-11-07T15:15:17.384Z,22.80
2017-11-07T15:17:44.798Z,14.83
2017-11-07T15:20:12.190Z,13.13
2017-11-07T15:22:39.661Z,14.90
2017-11-07T15:25:07.078Z,18.37
2017-11-07T15:27:34.474Z,20.60
2017-11-07T15:30:01.880Z,20.83
2017-11-07T15:32:29.275Z,17.80
2017-11-07T15:34:56.731Z,17.50
2017-11-07T15:37:24.193Z,16.80
2017-11-07T15:39:51.607Z,17.90
2017-11-07T15:42:19.028Z,17.70
2017-11-07T15:44:46.448Z,17.87
2017-11-07T15:47:13.879Z,17.60
2017-11-07T15:49:41.287Z,18.97
2017-11-07T15:52:08.687Z,18.67
2017-11-07T15:54:36.149Z,19.73
2017-11-07T15:57:03.543Z,20.73
2017-11-07T15:59:31.033Z,16.73
2017-11-07T16:01:58.455Z,19.33
2017-11-07T16:04:25.838Z,19.00
2017-11-07T16:06:53.224Z,19.87
2017-11-07T16:09:20.627Z,19.90
2017-11-07T16:11:48.027Z,26.17
2017-11-07T16:14:15.422Z,18.90
2017-11-07T16:16:42.878Z,17.40
2017-11-07T16:19:10.332Z,17.93
2017-11-07T16:21:37.747Z,27.20
2017-11-07T16:24:05.260Z,21.67
2017-11-07T16:26:32.709Z,19.47
2017-11-07T16:29:00.148Z,19.77
2017-11-07T16:31:27.547Z,24.03
2017-11-07T16:33:54.934Z,27.90
2017-11-07T16:36:22.428Z,19.97
2017-11-07T16:38:49.842Z,20.23
2017-11-07T16:41:17.238Z,22.70
2017-11-07T16:43:44.628Z,21.77
2017-11-07T16:46:12.040Z,19.40
2017-11-07T16:48:39.498Z,17.70
2017-11-07T16:51:06.899Z,20.70
2017-11-07T16:53:34.319Z,23.47
2017-11-07T16:56:01.758Z,23.30
2017-11-07T16:58:29.156Z,18.67
2017-11-07T17:00:56.579Z,26.33
2017-11-07T17:03:24.030Z,24.23
2017-11-07T17:05:51.427Z,24.13
2017-11-07T17:08:18.816Z,21.57
2017-11-07T17:10:46.298Z,23.80
2017-11-07T17:13:13.681Z,26.70
2017-11-07T17:15:41.075Z,31.40
2017-11-07T17:18:08.468Z,25.73
2017-11-07T17:20:35.862Z,29.03
2017-11-07T17:23:03.256Z,24.00
2017-11-07T17:25:30.656Z,25.63
2017-11-07T17:27:58.049Z,25.20
2017-11-07T17:30:25.560Z,21.73
2017-11-07T17:32:53.007Z,18.00
2017-11-07T17:35:20.390Z,19.67
2017-11-07T17:37:47.799Z,19.50
2017-11-07T17:40:15.269Z,26.10
2017-11-07T17:42:42.682Z,21.80
2017-11-07T17:45:10.062Z,29.57
2017-11-07T17:47:37.459Z,20.43
2017-11-07T17:50:04.851Z,21.97
2017-11-07T17:52:32.249Z,28.20
2017-11-07T17:54:59.639Z,21.73
2017-11-07T17:57:27.055Z,23.30
2017-11-07T17:59:54.512Z,21.63
2017-11-07T18:02:21.931Z,25.13
2017-11-07T18:04:49.355Z,21.80
2017-11-07T18:07:16.758Z,21.37
2017-11-07T18:09:44.235Z,24.83
2017-11-07T18:12:11.622Z,25.93
2017-11-07T18:14:39.040Z,20.90
2017-11-07T18:17:06.422Z,28.97
2017-11-07T18:19:33.821Z,25.87
2017-11-07T18:22:01.313Z,28.37
2017-11-07T18:24:28.766Z,27.53
2017-11-07T18:26:56.163Z,23.33
2017-11-07T18:29:23.578Z,33.60
2017-11-07T18:31:51.039Z,27.87
2017-11-07T18:34:18.419Z,28.70
2017-11-07T18:36:45.830Z,35.70
2017-11-07T18:39:13.299Z,26.17
2017-11-07T18:41:40.691Z,24.57
2017-11-07T18:44:08.082Z,25.80
2017-11-07T18:46:35.582Z,27.63
2017-11-07T18:49:02.963Z,26.93
2017-11-07T18:51:30.383Z,29.47
2017-11-07T18:53:57.765Z,24.13
2017-11-07T18:56:25.184Z,32.93
2017-11-07T18:58:52.574Z,25.90
2017-11-07T19:01:20.106Z,25.17
2017-11-07T19:03:47.496Z,25.27
2017-11-07T19:06:14.908Z,23.53
2017-11-07T19:08:42.301Z,26.53
2017-11-07T19:11:09.693Z,27.20
2017-11-07T19:13:37.088Z,32.90
2017-11-07T19:16:04.535Z,27.10
2017-11-07T19:18:31.932Z,27.87
2017-11-07T19:20:59.341Z,27.57
2017-11-07T19:23:26.738Z,36.40
2017-11-07T19:25:54.121Z,32.90
2017-11-07T19:28:21.527Z,38.77
2017-11-07T19:30:48.922Z,37.33
2017-11-07T19:33:16.436Z,40.47
2017-11-07T19:35:43.826Z,35.87
2017-11-07T19:38:11.235Z,31.67
2017-11-07T19:40:38.635Z,23.20
2017-11-07T19:43:06.074Z,35.27
2017-11-07T19:45:33.494Z,31.57
2017-11-07T19:48:00.883Z,26.93
2017-11-07T19:50:28.310Z,30.67
2017-11-07T19:52:55.786Z,27.23
2017-11-07T19:55:23.233Z,19.07
2017-11-07T19:57:50.610Z,24.73
2017-11-07T20:00:18.010Z,23.60
2017-11-07T20:02:45.486Z,31.87
2017-11-07T20:05:12.879Z,23.60
2017-11-07T20:07:40.302Z,34.57
2017-11-07T20:10:07.721Z,22.20
2017-11-07T20:12:35.114Z,20.00
2017-11-07T20:15:02.504Z,20.33
2017-11-07T20:17:29.892Z,31.03
2017-11-07T20:19:57.374Z,24.07
2017-11-07T20:22:24.773Z,25.67
2017-11-07T20:24:52.178Z,21.20
2017-11-07T20:27:19.643Z,29.23
2017-11-07T20:29:47.027Z,20.63
2017-11-07T20:32:14.445Z,31.07
2017-11-07T20:34:41.828Z,22.60
2017-11-07T20:37:09.280Z,23.10
2017-11-07T20:39:36.662Z,26.50
2017-11-07T20:42:04.068Z,21.47
2017-11-07T20:44:31.458Z,26.37
2017-11-07T20:46:58.863Z,20.77
2017-11-07T20:51:56.474Z,23.13
2017-11-07T20:54:23.868Z,23.00
2017-11-07T20:56:51.370Z,24.20
2017-11-07T20:59:18.758Z,23.23
2017-11-07T21:01:46.163Z,24.93
2017-11-07T21:04:13.554Z,21.93
2017-11-07T21:06:40.982Z,22.13
2017-11-07T21:09:08.443Z,19.47
2017-11-07T21:11:35.835Z,26.50
2017-11-07T21:14:03.236Z,18.77
2017-11-07T21:16:30.623Z,24.23
2017-11-07T21:18:58.023Z,31.43
2017-11-07T21:21:26.217Z,21.13
2017-11-07T21:23:53.706Z,27.03
2017-11-07T21:26:21.103Z,24.07
2017-11-07T21:28:48.495Z,24.60
2017-11-07T21:31:15.887Z,24.20
2017-11-07T21:33:43.279Z,26.33
2017-11-07T21:36:10.683Z,20.10
2017-11-07T21:38:38.084Z,25.93
2017-11-07T21:41:05.500Z,19.43
2017-11-07T21:43:32.906Z,20.03
2017-11-07T21:46:00.298Z,24.93
2017-11-07T21:48:27.962Z,22.53
2017-11-07T21:50:55.375Z,23.27
2017-11-07T21:53:22.767Z,24.07
2017-11-07T21:55:50.167Z,16.63
2017-11-07T21:58:17.563Z,19.27
2017-11-07T22:00:44.970Z,18.40
2017-11-07T22:03:12.386Z,18.00
2017-11-07T22:05:39.850Z,20.23
2017-11-07T22:08:07.243Z,20.47
2017-11-07T22:10:34.670Z,21.57
2017-11-07T22:13:02.055Z,28.03
2017-11-07T22:15:29.579Z,21.77
2017-11-07T22:20:53.934Z,26.27
2017-11-07T22:23:26.359Z,21.40
2017-11-07T22:25:53.814Z,21.13
2017-11-07T22:28:21.215Z,22.43
2017-11-07T22:30:48.607Z,24.37
2017-11-07T22:33:15.995Z,24.53
2017-11-07T22:35:43.414Z,25.20
2017-11-07T22:38:10.816Z,21.70
2017-11-07T22:40:38.207Z,22.87
2017-11-07T22:43:05.617Z,23.00
2017-11-07T22:45:33.010Z,19.43
2017-11-07T22:48:00.426Z,19.60
2017-11-07T22:50:27.822Z,20.87
2017-11-07T22:52:55.218Z,29.77
2017-11-07T22:55:22.607Z,22.20
2017-11-07T22:57:50.008Z,21.00
2017-11-07T23:00:17.495Z,20.50
2017-11-07T23:02:44.942Z,25.87
2017-11-07T23:05:12.343Z,24.07
2017-11-07T23:07:39.745Z,19.00
2017-11-07T23:10:07.180Z,22.60
2017-11-07T23:12:34.561Z,26.77
2017-11-07T23:15:01.976Z,28.53
2017-11-07T23:17:29.359Z,21.07
2017-11-07T23:19:56.829Z,16.53
2017-11-07T23:22:24.216Z,16.83
2017-11-07T23:24:51.628Z,24.87
2017-11-07T23:27:19.009Z,25.23
2017-11-07T23:29:46.418Z,22.87
2017-11-07T23:32:13.817Z,27.03
2017-11-07T23:34:41.197Z,30.03
2017-11-07T23:37:08.619Z,20.83
2017-11-07T23:39:36.065Z,19.47
2017-11-07T23:42:03.459Z,31.70
2017-11-07T23:44:30.854Z,26.27
2017-11-07T23:46:58.356Z,17.50
2017-11-07T23:49:25.757Z,23.00
2017-11-07T23:51:53.151Z,30.07
2017-11-07T23:54:20.580Z,24.80
2017-11-07T23:56:48.013Z,24.13
2017-11-07T23:59:21.946Z,25.27
